createdAt,value
2023-01-09T00:01:32.576Z,9.40
2023-01-09T00:04:19.376Z,9.30
2023-01-09T00:07:06.109Z,9.40
2023-01-09T00:09:52.526Z,9.40
2023-01-09T00:12:38.881Z,9.50
2023-01-09T00:15:25.183Z,9.40
2023-01-09T00:18:13.475Z,9.40
2023-01-09T00:21:00.886Z,9.30
2023-01-09T00:23:47.711Z,9.30
2023-01-09T00:26:34.577Z,9.10
2023-01-09T00:29:22.978Z,9.10
2023-01-09T00:32:10.338Z,9.10
2023-01-09T00:34:58.356Z,9.00
2023-01-09T00:37:45.331Z,9.00
2023-01-09T00:40:31.717Z,9.00
2023-01-09T00:43:19.040Z,8.90
2023-01-09T00:46:07.812Z,9.00
2023-01-09T00:48:54.714Z,9.00
2023-01-09T00:51:43.113Z,9.00
2023-01-09T00:54:30.885Z,9.00
2023-01-09T00:57:17.847Z,9.10
2023-01-09T01:00:05.948Z,9.00
2023-01-09T01:02:52.565Z,9.00
2023-01-09T01:05:56.904Z,9.00
2023-01-09T01:08:45.570Z,9.00
2023-01-09T01:11:33.431Z,9.00
2023-01-09T01:14:19.970Z,9.00
2023-01-09T01:17:08.081Z,9.10
2023-01-09T01:19:54.694Z,9.10
2023-01-09T01:22:42.333Z,9.10
2023-01-09T01:25:30.372Z,9.10
2023-01-09T01:28:16.662Z,9.20
2023-01-09T01:31:03.408Z,9.20
2023-01-09T01:33:50.051Z,9.20
2023-01-09T01:36:36.613Z,9.20
2023-01-09T01:39:23.083Z,9.20
2023-01-09T01:42:13.983Z,9.20
2023-01-09T01:45:04.653Z,9.30
2023-01-09T01:47:58.259Z,9.30
2023-01-09T01:50:47.602Z,9.30
2023-01-09T01:53:39.791Z,9.30
2023-01-09T01:56:29.820Z,9.30
2023-01-09T01:59:23.193Z,9.30
2023-01-09T02:02:11.009Z,9.30
2023-01-09T02:04:59.701Z,9.20
2023-01-09T02:07:46.339Z,9.20
2023-01-09T02:10:33.455Z,9.20
2023-01-09T02:13:20.549Z,9.30
2023-01-09T02:16:21.167Z,9.30
2023-01-09T02:19:28.910Z,9.30
2023-01-09T02:22:25.889Z,9.30
2023-01-09T02:25:38.604Z,9.20
2023-01-09T02:28:51.230Z,9.30
2023-01-09T02:31:46.830Z,9.20
2023-01-09T02:34:42.155Z,9.30
2023-01-09T02:37:40.366Z,9.30
2023-01-09T02:40:32.340Z,9.30
2023-01-09T02:43:19.597Z,9.40
2023-01-09T02:46:06.650Z,9.30
2023-01-09T02:48:55.802Z,9.40
2023-01-09T02:51:52.227Z,9.40
2023-01-09T02:54:51.834Z,9.40
2023-01-09T02:57:55.057Z,9.30
2023-01-09T03:00:53.392Z,9.30
2023-01-09T03:03:48.980Z,9.20
2023-01-09T03:06:44.296Z,9.20
2023-01-09T03:09:35.268Z,9.10
2023-01-09T03:12:25.824Z,9.00
2023-01-09T03:15:15.480Z,8.90
2023-01-09T03:18:04.958Z,8.60
2023-01-09T03:20:53.864Z,8.30
2023-01-09T03:23:50.255Z,8.20
2023-01-09T03:26:37.052Z,8.20
2023-01-09T03:29:23.833Z,8.10
2023-01-09T03:32:10.458Z,8.10
2023-01-09T03:34:57.135Z,8.10
2023-01-09T03:37:43.505Z,8.10
2023-01-09T03:40:31.239Z,8.00
2023-01-09T03:43:17.717Z,7.90
2023-01-09T03:46:05.734Z,7.90
2023-01-09T03:48:52.535Z,7.90
2023-01-09T03:51:38.901Z,7.80
2023-01-09T03:54:25.583Z,7.80
2023-01-09T03:57:13.576Z,7.80
2023-01-09T03:59:59.902Z,7.80
2023-01-09T04:02:46.341Z,7.80
2023-01-09T04:05:32.835Z,7.80
2023-01-09T04:08:19.521Z,7.80
2023-01-09T04:11:06.667Z,7.80
2023-01-09T04:13:54.556Z,7.80
2023-01-09T04:16:41.411Z,7.80
2023-01-09T04:19:28.173Z,7.90
2023-01-09T04:22:14.579Z,7.90
2023-01-09T04:25:00.882Z,7.90
2023-01-09T04:27:49.290Z,7.80
2023-01-09T04:30:37.506Z,7.80
2023-01-09T04:33:24.557Z,7.70
2023-01-09T04:36:11.365Z,7.80
2023-01-09T04:38:57.943Z,7.70
2023-01-09T04:41:50.032Z,7.70
2023-01-09T04:44:36.730Z,7.70
2023-01-09T04:47:24.686Z,7.80
2023-01-09T04:50:12.514Z,7.70
2023-01-09T04:52:59.143Z,7.70
2023-01-09T04:55:45.537Z,7.80
2023-01-09T04:58:31.880Z,7.80
2023-01-09T05:01:18.467Z,7.80
2023-01-09T05:04:07.353Z,7.70
2023-01-09T05:06:56.077Z,7.80
2023-01-09T05:09:43.493Z,7.80
2023-01-09T05:12:30.277Z,7.80
2023-01-09T05:15:17.226Z,7.80
2023-01-09T05:18:03.931Z,7.70
2023-01-09T05:20:51.608Z,7.70
2023-01-09T05:23:38.277Z,7.70
2023-01-09T05:26:25.283Z,7.60
2023-01-09T05:29:11.784Z,7.60
2023-01-09T05:31:58.456Z,7.60
2023-01-09T05:34:45.154Z,7.60
2023-01-09T05:37:32.899Z,7.60
2023-01-09T05:40:19.918Z,7.50
2023-01-09T05:43:06.510Z,7.50
2023-01-09T05:45:53.100Z,7.50
2023-01-09T05:48:39.998Z,7.40
2023-01-09T05:51:26.325Z,7.40
2023-01-09T05:54:14.157Z,7.50
2023-01-09T05:57:00.692Z,7.50
2023-01-09T05:59:47.109Z,7.50
2023-01-09T06:02:33.485Z,7.60
2023-01-09T06:05:20.428Z,7.60
2023-01-09T06:08:06.921Z,7.70
2023-01-09T06:10:54.971Z,7.70
2023-01-09T06:13:41.377Z,7.70
2023-01-09T06:16:27.702Z,7.70
2023-01-09T06:19:14.188Z,7.80
2023-01-09T06:22:00.446Z,7.70
2023-01-09T06:24:46.830Z,7.80
2023-01-09T06:27:34.543Z,7.80
2023-01-09T06:30:21.302Z,7.70
2023-01-09T06:33:07.977Z,7.70
2023-01-09T06:35:54.349Z,7.70
2023-01-09T06:38:40.817Z,7.80
2023-01-09T06:41:27.258Z,7.80
2023-01-09T06:44:15.326Z,7.80
2023-01-09T06:47:01.721Z,7.80
2023-01-09T06:49:48.046Z,7.80
2023-01-09T06:52:34.431Z,7.80
2023-01-09T06:55:21.330Z,7.80
2023-01-09T06:58:07.822Z,7.80
2023-01-09T07:00:56.297Z,7.80
2023-01-09T07:03:43.085Z,7.90
2023-01-09T07:06:30.081Z,7.80
2023-01-09T07:09:17.048Z,7.80
2023-01-09T07:12:03.667Z,7.90
2023-01-09T07:14:50.029Z,7.90
2023-01-09T07:17:37.822Z,7.90
2023-01-09T07:20:24.578Z,7.90
2023-01-09T07:23:13.478Z,7.90
2023-01-09T07:26:01.172Z,7.90
2023-01-09T07:28:47.473Z,7.80
2023-01-09T07:31:33.995Z,7.90
2023-01-09T07:34:22.192Z,7.90
2023-01-09T07:37:08.520Z,8.00
2023-01-09T07:39:54.805Z,8.00
2023-01-09T07:42:41.506Z,8.00
2023-01-09T07:45:28.057Z,8.00
2023-01-09T07:48:14.731Z,8.10
2023-01-09T07:51:02.695Z,8.00
2023-01-09T07:53:49.267Z,8.00
2023-01-09T07:56:36.122Z,8.10
2023-01-09T07:59:22.864Z,8.10
2023-01-09T08:02:10.647Z,8.20
2023-01-09T08:04:57.538Z,8.20
2023-01-09T08:07:45.352Z,8.20
2023-01-09T08:10:31.572Z,8.10
2023-01-09T08:13:17.858Z,8.10
2023-01-09T08:16:04.521Z,8.10
2023-01-09T08:18:51.021Z,8.20
2023-01-09T08:21:37.861Z,8.30
2023-01-09T08:24:25.653Z,8.40
2023-01-09T08:27:12.048Z,8.40
2023-01-09T08:29:58.360Z,8.40
2023-01-09T08:32:45.021Z,8.40
2023-01-09T08:35:31.729Z,8.40
2023-01-09T08:38:18.986Z,8.50
2023-01-09T08:41:21.311Z,8.50
2023-01-09T08:44:25.390Z,8.50
2023-01-09T08:47:13.094Z,8.60
2023-01-09T08:49:59.838Z,8.50
2023-01-09T08:52:46.943Z,8.50
2023-01-09T08:55:33.488Z,8.60
2023-01-09T08:58:23.023Z,8.50
2023-01-09T09:01:09.745Z,8.50
2023-01-09T09:03:56.172Z,8.50
2023-01-09T09:06:42.565Z,8.60
2023-01-09T09:09:28.904Z,8.60
2023-01-09T09:12:15.112Z,8.70
2023-01-09T09:15:16.513Z,8.80
2023-01-09T09:18:05.098Z,8.90
2023-01-09T09:20:51.791Z,8.90
2023-01-09T09:23:38.066Z,8.90
2023-01-09T09:26:24.671Z,8.80
2023-01-09T09:29:11.495Z,8.80
2023-01-09T09:32:00.915Z,8.90
2023-01-09T09:34:47.487Z,8.90
2023-01-09T09:37:34.031Z,8.90
2023-01-09T09:40:27.705Z,8.90
2023-01-09T09:43:52.447Z,8.90
2023-01-09T09:46:45.921Z,9.00
2023-01-09T09:49:40.617Z,8.90
2023-01-09T09:52:36.231Z,9.00
2023-01-09T09:55:27.441Z,9.00
2023-01-09T09:58:21.674Z,9.10
2023-01-09T10:01:08.616Z,9.10
2023-01-09T10:03:59.839Z,9.20
2023-01-09T10:06:51.958Z,9.20
2023-01-09T10:09:48.340Z,9.30
2023-01-09T10:12:40.029Z,9.30
2023-01-09T10:15:36.513Z,9.40
2023-01-09T10:18:32.870Z,9.40
2023-01-09T10:21:23.398Z,9.50
2023-01-09T10:24:24.629Z,9.60
2023-01-09T10:27:33.542Z,9.70
2023-01-09T10:30:29.896Z,9.70
2023-01-09T10:33:35.673Z,9.80
2023-01-09T10:36:39.936Z,9.80
2023-01-09T10:39:34.500Z,9.70
2023-01-09T10:42:24.554Z,9.60
2023-01-09T10:45:23.608Z,9.60
2023-01-09T10:48:20.774Z,9.60
2023-01-09T10:51:17.601Z,9.60
2023-01-09T10:54:12.067Z,9.50
2023-01-09T10:57:01.737Z,9.50
2023-01-09T10:59:48.073Z,9.50
2023-01-09T11:02:36.321Z,9.40
2023-01-09T11:05:25.091Z,9.30
2023-01-09T11:08:22.266Z,9.30
2023-01-09T11:11:10.701Z,9.30
2023-01-09T11:14:08.555Z,9.30
2023-01-09T11:16:57.675Z,9.30
2023-01-09T11:20:02.400Z,9.40
2023-01-09T11:22:51.070Z,9.50
2023-01-09T11:25:52.279Z,9.60
2023-01-09T11:28:39.035Z,9.70
2023-01-09T11:31:28.861Z,9.70
2023-01-09T11:34:18.670Z,9.70
2023-01-09T11:37:08.983Z,9.50
2023-01-09T11:39:56.942Z,9.30
2023-01-09T11:43:03.488Z,9.30
2023-01-09T11:46:01.253Z,9.20
2023-01-09T11:48:57.973Z,9.00
2023-01-09T11:51:45.320Z,8.80
2023-01-09T11:54:34.800Z,8.80
2023-01-09T11:57:22.601Z,8.60
2023-01-09T12:00:25.534Z,8.50
2023-01-09T12:03:24.149Z,8.60
2023-01-09T12:06:20.829Z,8.60
2023-01-09T12:09:08.775Z,8.60
2023-01-09T12:12:01.642Z,8.60
2023-01-09T12:15:01.914Z,8.60
2023-01-09T12:18:32.869Z,8.70
2023-01-09T12:21:33.554Z,8.80
2023-01-09T12:24:47.505Z,8.70
2023-01-09T12:27:50.902Z,8.80
2023-01-09T12:30:53.309Z,8.80
2023-01-09T12:33:51.287Z,9.00
2023-01-09T12:36:45.084Z,8.80
2023-01-09T12:39:36.694Z,8.80
2023-01-09T12:42:40.519Z,8.90
2023-01-09T12:45:41.668Z,8.80
2023-01-09T12:48:43.785Z,8.60
2023-01-09T12:51:36.552Z,8.60
2023-01-09T12:54:28.960Z,8.50
2023-01-09T12:57:22.108Z,8.60
2023-01-09T13:00:18.891Z,8.70
2023-01-09T13:03:14.338Z,8.70
2023-01-09T13:06:02.459Z,8.70
2023-01-09T13:08:53.482Z,8.80
2023-01-09T13:11:48.172Z,8.80
2023-01-09T13:14:47.141Z,8.80
2023-01-09T13:17:39.870Z,8.80
2023-01-09T13:20:33.764Z,8.60
2023-01-09T13:23:22.859Z,8.60
2023-01-09T13:26:15.574Z,8.60
2023-01-09T13:29:10.666Z,8.60
2023-01-09T13:32:18.356Z,8.50
2023-01-09T13:35:05.672Z,8.50
2023-01-09T13:37:54.241Z,8.50
2023-01-09T13:40:40.520Z,8.40
2023-01-09T13:43:26.935Z,8.60
2023-01-09T13:46:14.852Z,8.50
2023-01-09T13:49:01.982Z,8.50
2023-01-09T13:52:07.112Z,8.50
2023-01-09T13:55:28.822Z,8.50
2023-01-09T13:58:25.893Z,8.60
2023-01-09T14:01:45.994Z,8.60
2023-01-09T14:04:43.531Z,8.60
2023-01-09T14:07:30.725Z,8.60
2023-01-09T14:10:25.153Z,8.60
2023-01-09T14:13:17.743Z,8.60
2023-01-09T14:16:08.425Z,8.60
2023-01-09T14:19:03.642Z,8.50
2023-01-09T14:21:53.965Z,8.60
2023-01-09T14:24:46.415Z,8.60
2023-01-09T14:28:11.567Z,8.60
2023-01-09T14:31:07.148Z,8.40
2023-01-09T14:34:32.429Z,8.40
2023-01-09T14:37:20.083Z,8.30
2023-01-09T14:40:10.542Z,8.20
2023-01-09T14:43:00.299Z,7.80
2023-01-09T14:45:49.996Z,7.60
2023-01-09T14:48:41.364Z,7.40
2023-01-09T14:51:32.396Z,7.20
2023-01-09T14:54:28.869Z,7.20
2023-01-09T14:57:26.820Z,7.10
2023-01-09T15:00:18.692Z,7.00
2023-01-09T15:03:05.832Z,7.00
2023-01-09T15:05:52.900Z,7.10
2023-01-09T15:08:45.216Z,7.20
2023-01-09T15:11:33.552Z,7.20
2023-01-09T15:14:30.763Z,7.20
2023-01-09T15:17:21.784Z,7.20
2023-01-09T15:20:16.906Z,7.20
2023-01-09T15:23:04.261Z,7.20
2023-01-09T15:25:52.983Z,7.30
2023-01-09T15:28:42.647Z,7.30
2023-01-09T15:31:30.098Z,7.50
2023-01-09T15:34:20.576Z,7.60
2023-01-09T15:37:25.007Z,7.50
2023-01-09T15:40:21.928Z,7.40
2023-01-09T15:43:14.651Z,7.50
2023-01-09T15:46:02.433Z,7.50
2023-01-09T15:48:55.132Z,7.50
2023-01-09T15:51:45.124Z,7.40
2023-01-09T15:54:33.436Z,7.20
2023-01-09T15:57:35.778Z,7.30
2023-01-09T16:00:45.772Z,7.30
2023-01-09T16:03:32.511Z,7.20
2023-01-09T16:06:24.753Z,7.20
2023-01-09T16:09:17.093Z,7.00
2023-01-09T16:12:05.363Z,6.90
2023-01-09T16:14:54.984Z,6.90
2023-01-09T16:18:05.941Z,7.00
2023-01-09T16:21:20.835Z,7.00
2023-01-09T16:24:27.019Z,7.00
2023-01-09T16:27:26.008Z,7.00
2023-01-09T16:30:26.812Z,6.90
2023-01-09T16:33:22.760Z,7.00
2023-01-09T16:36:10.922Z,7.00
2023-01-09T16:39:00.726Z,7.00
2023-01-09T16:42:04.452Z,7.00
2023-01-09T16:44:51.054Z,7.00
2023-01-09T16:47:37.899Z,7.00
2023-01-09T16:50:26.278Z,7.00
2023-01-09T16:53:16.746Z,7.00
2023-01-09T16:56:04.029Z,7.00
2023-01-09T16:58:53.329Z,7.00
2023-01-09T17:01:40.297Z,7.00
2023-01-09T17:04:27.274Z,7.00
2023-01-09T17:07:16.535Z,6.90
2023-01-09T17:10:03.189Z,6.90
2023-01-09T17:12:50.486Z,6.80
2023-01-09T17:15:37.165Z,6.80
2023-01-09T17:18:25.083Z,6.90
2023-01-09T17:21:18.031Z,6.80
2023-01-09T17:24:23.881Z,6.80
2023-01-09T17:27:28.675Z,6.80
2023-01-09T17:30:19.667Z,6.80
2023-01-09T17:33:06.454Z,6.80
2023-01-09T17:35:53.008Z,6.80
2023-01-09T17:38:39.237Z,6.80
2023-01-09T17:41:28.555Z,6.70
2023-01-09T17:44:15.064Z,6.70
2023-01-09T17:47:01.913Z,6.70
2023-01-09T17:49:48.640Z,6.70
2023-01-09T17:52:35.185Z,6.70
2023-01-09T17:55:21.689Z,6.60
2023-01-09T17:58:20.237Z,6.60
2023-01-09T18:01:06.750Z,6.60
2023-01-09T18:03:53.649Z,6.60
2023-01-09T18:06:40.186Z,6.60
2023-01-09T18:09:26.760Z,6.60
2023-01-09T18:12:13.152Z,6.50
2023-01-09T18:15:02.487Z,6.50
2023-01-09T18:17:48.852Z,6.50
2023-01-09T18:20:35.126Z,6.50
2023-01-09T18:23:22.096Z,6.60
2023-01-09T18:26:09.571Z,6.60
2023-01-09T18:28:58.455Z,6.60
2023-01-09T18:31:46.604Z,6.60
2023-01-09T18:34:33.273Z,6.60
2023-01-09T18:37:19.633Z,6.60
2023-01-09T18:40:07.531Z,6.60
2023-01-09T18:42:54.471Z,6.60
2023-01-09T18:45:41.142Z,6.70
2023-01-09T18:48:28.996Z,6.70
2023-01-09T18:51:15.307Z,6.70
2023-01-09T18:54:02.315Z,6.70
2023-01-09T18:56:52.619Z,6.60
2023-01-09T18:59:39.530Z,6.70
2023-01-09T19:02:26.838Z,6.70
2023-01-09T19:05:15.493Z,6.80
2023-01-09T19:08:02.257Z,6.80
2023-01-09T19:10:55.082Z,6.80
2023-01-09T19:13:41.588Z,6.80
2023-01-09T19:16:28.037Z,6.80
2023-01-09T19:19:14.713Z,6.80
2023-01-09T19:22:02.921Z,6.90
2023-01-09T19:24:50.014Z,6.90
2023-01-09T19:27:36.685Z,6.80
2023-01-09T19:30:23.009Z,6.80
2023-01-09T19:33:11.444Z,6.80
2023-01-09T19:35:58.427Z,6.80
2023-01-09T19:38:46.372Z,6.80
2023-01-09T19:41:33.101Z,6.80
2023-01-09T19:44:20.973Z,6.80
2023-01-09T19:47:07.419Z,6.80
2023-01-09T19:49:55.298Z,6.80
2023-01-09T19:52:43.160Z,6.80
2023-01-09T19:55:30.937Z,6.80
2023-01-09T19:58:17.453Z,6.80
2023-01-09T20:01:11.890Z,6.80
2023-01-09T20:04:02.759Z,6.80
2023-01-09T20:06:50.726Z,6.80
2023-01-09T20:09:37.658Z,6.80
2023-01-09T20:12:25.500Z,6.80
2023-01-09T20:15:14.760Z,6.90
2023-01-09T20:18:04.130Z,6.90
2023-01-09T20:20:51.160Z,6.90
2023-01-09T20:23:37.922Z,6.80
2023-01-09T20:26:25.883Z,6.90
2023-01-09T20:29:14.176Z,6.90
2023-01-09T20:32:01.322Z,6.90
2023-01-09T20:34:48.113Z,6.90
2023-01-09T20:37:34.964Z,7.00
2023-01-09T20:40:21.344Z,7.00
2023-01-09T20:43:08.530Z,7.00
2023-01-09T20:45:56.648Z,7.00
2023-01-09T20:48:43.238Z,7.00
2023-01-09T20:51:30.947Z,7.00
2023-01-09T20:54:18.666Z,7.00
2023-01-09T20:57:05.338Z,7.10
2023-01-09T20:59:52.427Z,7.10
2023-01-09T21:02:40.330Z,7.10
2023-01-09T21:05:26.847Z,7.00
2023-01-09T21:08:13.406Z,7.00
2023-01-09T21:10:59.877Z,7.00
2023-01-09T21:13:46.217Z,7.10
2023-01-09T21:16:32.673Z,7.10
2023-01-09T21:19:21.369Z,7.20
2023-01-09T21:22:07.995Z,7.20
2023-01-09T21:24:54.471Z,7.30
2023-01-09T21:27:42.757Z,7.40
2023-01-09T21:30:29.369Z,7.30
2023-01-09T21:33:16.134Z,7.30
2023-01-09T21:36:03.945Z,7.20
2023-01-09T21:38:52.166Z,7.10
2023-01-09T21:41:56.193Z,7.10
2023-01-09T21:45:00.254Z,7.10
2023-01-09T21:47:47.526Z,7.10
2023-01-09T21:50:34.829Z,7.10
2023-01-09T21:53:22.511Z,7.00
2023-01-09T21:56:09.548Z,6.90
2023-01-09T21:58:55.893Z,6.90
2023-01-09T22:01:42.184Z,6.80
2023-01-09T22:04:30.429Z,6.80
2023-01-09T22:07:17.091Z,6.80
2023-01-09T22:10:05.313Z,6.80
2023-01-09T22:13:10.481Z,6.80
2023-01-09T22:15:59.390Z,6.80
2023-01-09T22:18:46.077Z,6.80
2023-01-09T22:21:32.982Z,6.70
2023-01-09T22:24:21.639Z,6.70
2023-01-09T22:27:09.696Z,6.60
2023-01-09T22:29:56.286Z,6.60
2023-01-09T22:32:43.162Z,6.60
2023-01-09T22:35:29.796Z,6.50
2023-01-09T22:38:16.192Z,6.50
2023-01-09T22:41:02.562Z,6.60
2023-01-09T22:43:50.382Z,6.60
2023-01-09T22:46:37.007Z,6.60
2023-01-09T22:49:23.644Z,6.60
2023-01-09T22:52:11.870Z,6.50
2023-01-09T22:54:58.405Z,6.60
2023-01-09T22:57:44.861Z,6.60
2023-01-09T23:00:33.657Z,6.60
2023-01-09T23:03:20.794Z,6.50
2023-01-09T23:06:11.068Z,6.60
2023-01-09T23:08:57.344Z,6.60
2023-01-09T23:12:00.985Z,6.70
2023-01-09T23:14:47.615Z,6.70
2023-01-09T23:17:35.934Z,6.80
2023-01-09T23:20:22.305Z,6.80
2023-01-09T23:23:08.830Z,6.80
2023-01-09T23:25:58.192Z,6.70
2023-01-09T23:28:45.215Z,6.70
2023-01-09T23:31:31.647Z,6.80
2023-01-09T23:34:23.516Z,6.80
2023-01-09T23:37:10.120Z,6.70
2023-01-09T23:39:56.870Z,6.70
2023-01-09T23:43:00.457Z,6.70
2023-01-09T23:45:49.780Z,6.80
2023-01-09T23:48:36.436Z,6.70
2023-01-09T23:51:24.687Z,6.80
2023-01-09T23:54:11.051Z,6.80
2023-01-09T23:56:57.551Z,6.80
2023-01-09T23:59:43.974Z,6.80
